Time;durP1;ratioP1;P1;durP2;ratioP2;P2;SDS_P1;SDS_P2;PMS_P1;PMS_P2;Temp;Humidity;BMP_temperature;BMP_pressure;BME280_temperature;BME280_humidity;BME280_pressure;Samples;Min_cycle;Max_cycle;Signal;HPM_P1;HPM_P2
2023/10/16 00:00:29;;;;;;;11.07;1.83;;;;;;;;;;5075193;28;20053;-69
2023/10/16 00:02:59;;;;;;;10.65;2.25;;;;;;;;;;5075946;28;20048;-69
2023/10/16 00:05:28;;;;;;;15.43;2.40;;;;;;;;;;5076783;28;20049;-69
2023/10/16 00:07:56;;;;;;;17.10;2.00;;;;;;;;;;5076051;28;20094;-69
2023/10/16 00:10:23;;;;;;;14.38;2.70;;;;;;;;;;5074870;28;20138;-70
2023/10/16 00:12:49;;;;;;;12.88;2.30;;;;;;;;;;5074977;28;20436;-70
2023/10/16 00:15:16;;;;;;;11.77;2.30;;;;;;;;;;5074891;28;20045;-69
2023/10/16 00:17:43;;;;;;;13.70;2.30;;;;;;;;;;5076515;28;20068;-70
2023/10/16 00:20:16;;;;;;;9.63;2.10;;;;;;;;;;5076153;28;20450;-70
2023/10/16 00:22:45;;;;;;;13.70;2.80;;;;;;;;;;5058946;28;20438;-69
2023/10/16 00:25:11;;;;;;;12.40;3.10;;;;;;;;;;5076017;28;20043;-69
2023/10/16 00:27:38;;;;;;;11.32;2.38;;;;;;;;;;5058246;28;20044;-70
2023/10/16 00:30:08;;;;;;;10.33;2.13;;;;;;;;;;5076356;28;20054;-70
2023/10/16 00:32:37;;;;;;;9.95;2.78;;;;;;;;;;5075812;28;20097;-70
2023/10/16 00:35:04;;;;;;;12.82;2.13;;;;;;;;;;5075792;28;20044;-70
2023/10/16 00:37:33;;;;;;;8.80;2.35;;;;;;;;;;5075551;28;20048;-69
2023/10/16 00:40:02;;;;;;;9.65;2.17;;;;;;;;;;5074975;28;20048;-69
2023/10/16 00:42:29;;;;;;;10.48;2.20;;;;;;;;;;5059003;28;20135;-70
2023/10/16 00:44:59;;;;;;;13.35;2.97;;;;;;;;;;5059955;28;20490;-70
2023/10/16 00:47:26;;;;;;;13.43;2.30;;;;;;;;;;5085984;28;20048;-69
2023/10/16 00:49:52;;;;;;;11.10;2.53;;;;;;;;;;5078106;28;20106;-69
2023/10/16 00:52:19;;;;;;;11.80;2.60;;;;;;;;;;5075316;28;20286;-70
2023/10/16 00:54:46;;;;;;;12.77;1.77;;;;;;;;;;5074847;28;20044;-69
2023/10/16 00:57:13;;;;;;;10.07;1.90;;;;;;;;;;5075240;28;20078;-70
2023/10/16 00:59:41;;;;;;;12.70;1.60;;;;;;;;;;5073691;28;20132;-68
2023/10/16 01:02:11;;;;;;;6.30;1.50;;;;;;;;;;5073951;28;20060;-70
2023/10/16 01:04:40;;;;;;;10.35;1.70;;;;;;;;;;5075002;28;20063;-71
2023/10/16 01:07:06;;;;;;;8.95;1.55;;;;;;;;;;5075612;28;20393;-69
2023/10/16 01:09:36;;;;;;;15.27;1.42;;;;;;;;;;5074920;28;20084;-70
2023/10/16 01:12:11;;;;;;;9.68;1.70;;;;;;;;;;5074821;28;20051;-69
2023/10/16 01:14:38;;;;;;;4.32;0.93;;;;;;;;;;5074884;28;20500;-68
2023/10/16 01:17:08;;;;;;;11.05;0.82;;;;;;;;;;5074696;28;20095;-70
2023/10/16 01:19:36;;;;;;;6.20;1.10;;;;;;;;;;5073926;28;20492;-69
2023/10/16 01:22:02;;;;;;;7.22;0.85;;;;;;;;;;5074675;28;20094;-69
2023/10/16 01:24:31;;;;;;;5.57;1.00;;;;;;;;;;5074991;28;20435;-70
2023/10/16 01:27:14;;;;;;;14.38;1.40;;;;;;;;;;5075277;28;20359;-69
2023/10/16 01:29:40;;;;;;;5.78;1.10;;;;;;;;;;5074485;28;20044;-70
2023/10/16 01:32:07;;;;;;;11.52;1.50;;;;;;;;;;5106928;28;20044;-70
2023/10/16 01:34:34;;;;;;;10.05;1.33;;;;;;;;;;5074520;28;20125;-71
2023/10/16 01:37:09;;;;;;;7.93;1.92;;;;;;;;;;5074613;28;20075;-70
2023/10/16 01:39:48;;;;;;;8.65;1.50;;;;;;;;;;5073262;28;20036;-70
2023/10/16 01:42:15;;;;;;;8.90;1.60;;;;;;;;;;5074209;28;20124;-69
2023/10/16 01:44:45;;;;;;;15.57;2.13;;;;;;;;;;5074254;28;20058;-69
2023/10/16 01:47:15;;;;;;;8.00;1.63;;;;;;;;;;5074150;28;20049;-70
2023/10/16 01:49:45;;;;;;;7.43;1.52;;;;;;;;;;5073338;28;20055;-70
2023/10/16 01:52:14;;;;;;;10.65;1.95;;;;;;;;;;5074781;28;20369;-70
2023/10/16 01:54:41;;;;;;;8.98;1.88;;;;;;;;;;5072898;28;20044;-69
2023/10/16 01:57:10;;;;;;;9.38;1.77;;;;;;;;;;5073085;28;20492;-70
2023/10/16 01:59:41;;;;;;;8.57;1.70;;;;;;;;;;5072434;28;20504;-70
2023/10/16 02:02:09;;;;;;;11.73;1.85;;;;;;;;;;5074017;28;20127;-69
2023/10/16 02:04:36;;;;;;;13.40;2.40;;;;;;;;;;5072932;28;20048;-70
2023/10/16 02:07:02;;;;;;;15.57;2.88;;;;;;;;;;5073895;28;20337;-68
2023/10/16 02:09:31;;;;;;;14.35;3.22;;;;;;;;;;5074004;28;20040;-69
2023/10/16 02:11:59;;;;;;;14.07;3.05;;;;;;;;;;5072879;28;20052;-69
2023/10/16 02:14:25;;;;;;;13.48;2.35;;;;;;;;;;5073877;28;20048;-70
2023/10/16 02:16:51;;;;;;;16.27;3.05;;;;;;;;;;5056439;28;20123;-70
2023/10/16 02:19:18;;;;;;;18.08;3.30;;;;;;;;;;5073833;28;20043;-70
2023/10/16 02:21:47;;;;;;;13.43;3.22;;;;;;;;;;5073417;28;20480;-69
2023/10/16 02:24:13;;;;;;;11.90;3.42;;;;;;;;;;5074123;28;20044;-68
2023/10/16 02:26:55;;;;;;;14.25;3.50;;;;;;;;;;5074360;28;20079;-70
2023/10/16 02:29:22;;;;;;;15.90;3.28;;;;;;;;;;5073702;28;20044;-69
2023/10/16 02:31:50;;;;;;;13.63;3.58;;;;;;;;;;5072473;28;20436;-70
2023/10/16 02:34:22;;;;;;;17.45;3.85;;;;;;;;;;5073511;28;20044;-69
2023/10/16 02:36:49;;;;;;;20.33;4.72;;;;;;;;;;5056522;28;20385;-70
2023/10/16 02:39:35;;;;;;;16.42;4.53;;;;;;;;;;5055705;28;20108;-69
2023/10/16 02:42:01;;;;;;;17.58;3.58;;;;;;;;;;5073356;28;20087;-70
2023/10/16 02:44:27;;;;;;;16.33;3.90;;;;;;;;;;5072067;28;20503;-70
2023/10/16 02:46:56;;;;;;;19.75;3.80;;;;;;;;;;5073847;28;20478;-69
2023/10/16 02:49:22;;;;;;;18.60;4.30;;;;;;;;;;5072079;28;20558;-70
2023/10/16 02:51:48;;;;;;;15.93;4.07;;;;;;;;;;5073222;28;20075;-71
2023/10/16 02:54:14;;;;;;;21.60;5.32;;;;;;;;;;5073130;28;20052;-69
2023/10/16 02:56:44;;;;;;;20.45;4.07;;;;;;;;;;5073815;28;20048;-69
2023/10/16 02:59:11;;;;;;;17.23;3.90;;;;;;;;;;5071456;28;20056;-71
2023/10/16 03:01:38;;;;;;;13.05;3.85;;;;;;;;;;5073212;28;20086;-70
2023/10/16 03:04:05;;;;;;;17.67;4.63;;;;;;;;;;5072226;28;20136;-69
2023/10/16 03:06:39;;;;;;;22.90;4.95;;;;;;;;;;5039794;28;20334;-69
2023/10/16 03:11:56;;;;;;;21.52;5.43;;;;;;;;;;5073074;28;20051;-69
2023/10/16 03:14:22;;;;;;;17.00;4.00;;;;;;;;;;5056517;28;20052;-69
2023/10/16 03:16:48;;;;;;;24.90;4.75;;;;;;;;;;5077132;28;20400;-70
2023/10/16 03:19:16;;;;;;;14.95;4.10;;;;;;;;;;5059256;28;20072;-70
2023/10/16 03:21:45;;;;;;;19.48;4.82;;;;;;;;;;5076049;28;20048;-69
2023/10/16 03:24:12;;;;;;;21.55;5.28;;;;;;;;;;5077672;28;20067;-69
2023/10/16 03:26:42;;;;;;;19.27;4.93;;;;;;;;;;5076018;28;20044;-70
2023/10/16 03:29:08;;;;;;;21.92;5.30;;;;;;;;;;5076096;28;20060;-69
2023/10/16 03:31:36;;;;;;;14.70;4.40;;;;;;;;;;5076962;28;20044;-69
2023/10/16 03:34:02;;;;;;;23.63;5.15;;;;;;;;;;5075658;28;20059;-68
2023/10/16 03:36:29;;;;;;;15.18;4.60;;;;;;;;;;5042299;28;20093;-70
2023/10/16 03:38:57;;;;;;;19.92;5.07;;;;;;;;;;5075263;28;20473;-70
2023/10/16 03:41:32;;;;;;;15.13;4.97;;;;;;;;;;5077322;28;20138;-68
2023/10/16 03:44:15;;;;;;;18.02;5.05;;;;;;;;;;5076597;28;20147;-69
2023/10/16 03:46:41;;;;;;;20.55;4.68;;;;;;;;;;5077038;28;20048;-70
2023/10/16 03:49:08;;;;;;;15.68;4.65;;;;;;;;;;5076129;28;20048;-69
2023/10/16 03:51:34;;;;;;;26.83;5.93;;;;;;;;;;5076678;28;20416;-69
2023/10/16 03:54:02;;;;;;;25.40;5.38;;;;;;;;;;5076270;28;20071;-69
2023/10/16 03:56:30;;;;;;;16.33;4.70;;;;;;;;;;5076164;28;20138;-70
2023/10/16 03:58:57;;;;;;;15.38;4.00;;;;;;;;;;5076276;28;20082;-69
2023/10/16 04:01:37;;;;;;;;;;;;;;;;;;5077061;28;20052;-70
2023/10/16 04:04:07;;;;;;;21.33;3.58;;;;;;;;;;5075536;28;19927;-69
2023/10/16 04:06:39;;;;;;;23.95;4.72;;;;;;;;;;5075918;28;20048;-70
2023/10/16 04:09:09;;;;;;;16.48;3.78;;;;;;;;;;5076819;28;20048;-70
2023/10/16 04:11:37;;;;;;;19.15;3.75;;;;;;;;;;5076811;28;20056;-69
2023/10/16 04:14:11;;;;;;;13.88;3.90;;;;;;;;;;5075257;28;20048;-70
2023/10/16 04:16:43;;;;;;;17.55;3.70;;;;;;;;;;5076416;28;20465;-70
2023/10/16 04:21:47;;;;;;;17.05;4.05;;;;;;;;;;5076326;28;20503;-70
2023/10/16 04:26:56;;;;;;;16.08;4.05;;;;;;;;;;5074821;28;20048;-70
2023/10/16 04:29:25;;;;;;;20.08;3.88;;;;;;;;;;5076121;28;20118;-70
2023/10/16 04:31:58;;;;;;;14.80;3.50;;;;;;;;;;5075538;28;20132;-70
2023/10/16 04:37:24;;;;;;;;;;;;;;;;;;5075851;28;20066;-71
2023/10/16 04:50:31;;;;;;;13.93;2.97;;;;;;;;;;5075594;28;20084;-69
2023/10/16 05:11:27;;;;;;;14.63;3.67;;;;;;;;;;5075619;28;20044;-71
2023/10/16 05:16:47;;;;;;;15.00;3.63;;;;;;;;;;5074913;28;20393;-70
2023/10/16 06:14:12;;;;;;;18.30;4.13;;;;;;;;;;5072846;28;20361;-71
2023/10/16 06:16:38;;;;;;;19.45;5.10;;;;;;;;;;5072522;28;20123;-70
2023/10/16 06:19:14;;;;;;;18.13;3.95;;;;;;;;;;5073578;28;20037;-71
2023/10/16 06:21:45;;;;;;;19.02;5.07;;;;;;;;;;5073810;28;20123;-70
2023/10/16 06:24:25;;;;;;;18.00;4.55;;;;;;;;;;5073333;28;20048;-71
2023/10/16 06:26:51;;;;;;;22.08;5.82;;;;;;;;;;5073164;28;20357;-71
2023/10/16 06:29:18;;;;;;;20.13;4.28;;;;;;;;;;5073445;28;20079;-71
2023/10/16 06:31:53;;;;;;;20.77;4.30;;;;;;;;;;5073346;28;20093;-73
2023/10/16 06:34:19;;;;;;;22.38;4.43;;;;;;;;;;5073246;28;20048;-71
2023/10/16 06:36:45;;;;;;;17.75;5.00;;;;;;;;;;5072474;28;20406;-71
2023/10/16 06:39:28;;;;;;;23.05;5.72;;;;;;;;;;5073247;28;20041;-72
2023/10/16 06:41:54;;;;;;;20.42;4.57;;;;;;;;;;5073790;28;20047;-71
2023/10/16 06:44:28;;;;;;;22.80;4.63;;;;;;;;;;5072795;28;20149;-70
2023/10/16 06:46:58;;;;;;;19.95;4.97;;;;;;;;;;5073045;28;20093;-71
2023/10/16 06:49:26;;;;;;;15.57;4.50;;;;;;;;;;5072492;28;20094;-71
2023/10/16 06:51:56;;;;;;;18.50;4.60;;;;;;;;;;5073214;28;20102;-71
2023/10/16 06:54:23;;;;;;;23.40;4.80;;;;;;;;;;5072283;28;20052;-71
2023/10/16 06:56:49;;;;;;;18.38;4.47;;;;;;;;;;5072352;28;20081;-70
2023/10/16 06:59:16;;;;;;;18.40;5.18;;;;;;;;;;5072871;28;20044;-71
2023/10/16 07:01:46;;;;;;;;;;;;;;;;;;5072799;28;20087;-71
2023/10/16 07:04:14;;;;;;;23.67;5.25;;;;;;;;;;5073230;28;19966;-71
2023/10/16 07:06:42;;;;;;;22.35;4.88;;;;;;;;;;5072799;28;20119;-69
2023/10/16 07:09:09;;;;;;;19.83;5.20;;;;;;;;;;5073028;28;20119;-71
2023/10/16 07:11:35;;;;;;;21.30;5.47;;;;;;;;;;5071995;28;20051;-71
2023/10/16 07:14:01;;;;;;;16.40;5.30;;;;;;;;;;5073486;28;20115;-71
2023/10/16 07:16:28;;;;;;;24.10;5.45;;;;;;;;;;5072873;28;20036;-71
2023/10/16 07:18:57;;;;;;;;;;;;;;;;;;5055582;28;20102;-71
2023/10/16 07:21:25;;;;;;;22.70;4.97;;;;;;;;;;5072248;28;19922;-71
2023/10/16 07:23:53;;;;;;;22.77;4.78;;;;;;;;;;5071487;28;20044;-71
2023/10/16 07:26:19;;;;;;;16.33;4.78;;;;;;;;;;5072924;28;20043;-71
2023/10/16 07:28:48;;;;;;;21.35;4.72;;;;;;;;;;5072744;28;20380;-71
2023/10/16 07:31:16;;;;;;;23.95;4.93;;;;;;;;;;5055049;28;20040;-71
2023/10/16 07:33:43;;;;;;;17.25;5.13;;;;;;;;;;5071514;28;20044;-71
2023/10/16 07:36:12;;;;;;;15.63;4.68;;;;;;;;;;5054937;28;20055;-70
2023/10/16 07:38:38;;;;;;;17.63;4.80;;;;;;;;;;5071782;28;20381;-70
2023/10/16 07:41:05;;;;;;;28.00;5.10;;;;;;;;;;5055771;28;20044;-71
2023/10/16 07:43:33;;;;;;;22.45;5.00;;;;;;;;;;5055003;28;20056;-71
2023/10/16 07:48:34;;;;;;;17.73;4.63;;;;;;;;;;5072740;28;20064;-70
2023/10/16 07:51:06;;;;;;;19.95;5.25;;;;;;;;;;5054856;28;20070;-71
2023/10/16 07:53:34;;;;;;;12.90;4.07;;;;;;;;;;5073237;28;20052;-70
2023/10/16 07:56:02;;;;;;;15.95;4.68;;;;;;;;;;5072643;28;20079;-71
2023/10/16 07:58:34;;;;;;;16.30;4.65;;;;;;;;;;5071404;28;20054;-70
2023/10/16 08:03:41;;;;;;;19.52;4.25;;;;;;;;;;5076099;28;20097;-71
2023/10/16 08:06:12;;;;;;;18.55;4.28;;;;;;;;;;5076795;28;20049;-71
2023/10/16 08:08:42;;;;;;;14.55;3.85;;;;;;;;;;5076088;28;20040;-70
2023/10/16 08:11:13;;;;;;;17.38;3.33;;;;;;;;;;5074883;28;20449;-70
2023/10/16 08:13:49;;;;;;;15.43;3.60;;;;;;;;;;5076064;28;20049;-72
2023/10/16 08:16:21;;;;;;;12.15;3.10;;;;;;;;;;5075898;28;20040;-70
2023/10/16 08:18:51;;;;;;;13.57;3.67;;;;;;;;;;5074538;28;20060;-71
2023/10/16 08:21:24;;;;;;;18.35;3.22;;;;;;;;;;5076028;28;20485;-72
2023/10/16 08:23:54;;;;;;;11.50;3.00;;;;;;;;;;5075893;28;20044;-72
2023/10/16 08:26:29;;;;;;;10.23;2.80;;;;;;;;;;5075913;28;20053;-70
2023/10/16 08:31:47;;;;;;;12.60;3.28;;;;;;;;;;5075804;28;20056;-73
2023/10/16 08:34:19;;;;;;;15.13;2.85;;;;;;;;;;5076216;28;20049;-73
2023/10/16 08:36:48;;;;;;;15.85;2.92;;;;;;;;;;5075285;28;20045;-71
2023/10/16 08:39:17;;;;;;;10.93;2.70;;;;;;;;;;5075732;28;20488;-71
2023/10/16 08:41:45;;;;;;;13.23;2.72;;;;;;;;;;5075547;28;20388;-71
2023/10/16 08:44:24;;;;;;;16.90;3.50;;;;;;;;;;5075503;28;20082;-70
2023/10/16 08:49:24;;;;;;;15.38;2.97;;;;;;;;;;5074440;28;20052;-71
2023/10/16 08:52:09;;;;;;;9.93;3.63;;;;;;;;;;5074982;28;20041;-71
2023/10/16 08:57:16;;;;;;;14.80;2.75;;;;;;;;;;5075724;28;20106;-71
2023/10/16 08:59:43;;;;;;;10.38;2.45;;;;;;;;;;5075044;28;20067;-71
2023/10/16 09:02:13;;;;;;;13.30;2.30;;;;;;;;;;5074094;28;20057;-72
2023/10/16 09:04:42;;;;;;;11.77;2.65;;;;;;;;;;5075108;28;20051;-71
2023/10/16 09:07:11;;;;;;;14.93;3.03;;;;;;;;;;5074052;28;20049;-71
2023/10/16 09:09:41;;;;;;;12.88;2.30;;;;;;;;;;5057094;28;20131;-70
2023/10/16 09:12:11;;;;;;;13.80;2.13;;;;;;;;;;5074472;28;20088;-71
2023/10/16 09:14:40;;;;;;;16.20;2.60;;;;;;;;;;5074656;28;20520;-70
2023/10/16 09:17:07;;;;;;;12.32;2.08;;;;;;;;;;5073633;28;20094;-71
2023/10/16 09:19:34;;;;;;;12.93;2.38;;;;;;;;;;5075291;28;20530;-70
2023/10/16 09:22:09;;;;;;;11.77;2.20;;;;;;;;;;5073802;28;20143;-70
2023/10/16 09:24:36;;;;;;;14.38;1.90;;;;;;;;;;5074401;28;20044;-70
2023/10/16 09:27:17;;;;;;;9.60;2.27;;;;;;;;;;5074501;28;20047;-70
2023/10/16 09:29:56;;;;;;;8.63;1.92;;;;;;;;;;5074131;28;20062;-70
2023/10/16 09:32:36;;;;;;;13.93;2.50;;;;;;;;;;5074673;28;20048;-71
2023/10/16 09:35:06;;;;;;;8.65;1.80;;;;;;;;;;5074791;28;20059;-70
2023/10/16 09:37:36;;;;;;;12.00;1.80;;;;;;;;;;5075289;28;20066;-70
2023/10/16 09:40:18;;;;;;;13.25;2.40;;;;;;;;;;5074565;28;20052;-70
2023/10/16 09:42:55;;;;;;;11.68;2.53;;;;;;;;;;5074193;28;20110;-70
2023/10/16 09:45:21;;;;;;;;;;;;;;;;;;5075370;28;20465;-71
2023/10/16 09:47:48;;;;;;;9.43;2.17;;;;;;;;;;5056435;28;19921;-70
2023/10/16 09:50:21;;;;;;;9.45;1.88;;;;;;;;;;5073118;28;20045;-71
2023/10/16 09:52:48;;;;;;;13.65;1.70;;;;;;;;;;5074021;28;20132;-71
2023/10/16 09:55:14;;;;;;;10.27;1.85;;;;;;;;;;5057092;28;20488;-71
2023/10/16 09:57:49;;;;;;;9.82;1.70;;;;;;;;;;5073966;28;20047;-71
2023/10/16 10:00:49;;;;;;;9.43;1.40;;;;;;;;;;5073936;28;20060;-72
2023/10/16 10:03:17;;;;;;;10.15;1.95;;;;;;;;;;5072906;28;20094;-71
2023/10/16 10:06:34;;;;;;;9.80;1.50;;;;;;;;;;5072719;28;20056;-71
2023/10/16 10:11:39;;;;;;;16.77;2.30;;;;;;;;;;5065137;28;20055;-71
2023/10/16 10:16:56;;;;;;;17.70;2.63;;;;;;;;;;5073390;28;20059;-72
2023/10/16 10:19:35;;;;;;;9.52;1.05;;;;;;;;;;5072800;28;20400;-71
2023/10/16 10:22:27;;;;;;;12.20;1.10;;;;;;;;;;5056214;28;20438;-70
2023/10/16 10:25:11;;;;;;;13.30;1.52;;;;;;;;;;5071696;28;20056;-70
2023/10/16 10:27:41;;;;;;;5.43;0.93;;;;;;;;;;5073537;28;20048;-71
2023/10/16 10:30:10;;;;;;;9.07;1.23;;;;;;;;;;5072435;28;20041;-70
2023/10/16 10:32:37;;;;;;;9.65;1.48;;;;;;;;;;5072472;28;20052;-71
2023/10/16 10:35:21;;;;;;;11.82;1.73;;;;;;;;;;5073594;28;20373;-70
2023/10/16 10:37:48;;;;;;;11.85;1.00;;;;;;;;;;5072687;28;20427;-71
2023/10/16 10:40:18;;;;;;;11.70;1.38;;;;;;;;;;5072946;28;20049;-71
2023/10/16 10:42:45;;;;;;;10.35;0.65;;;;;;;;;;5072636;28;20041;-71
2023/10/16 10:45:18;;;;;;;;;;;;;;;;;;5074138;28;20546;-72
2023/10/16 10:47:45;;;;;;;14.18;1.17;;;;;;;;;;5073763;28;20338;-71
2023/10/16 10:50:14;;;;;;;11.85;0.70;;;;;;;;;;5055451;28;20045;-71
2023/10/16 10:52:40;;;;;;;4.85;0.50;;;;;;;;;;5073193;28;20056;-70
2023/10/16 10:55:18;;;;;;;12.43;0.82;;;;;;;;;;5039663;28;20048;-70
2023/10/16 10:57:48;;;;;;;5.43;0.73;;;;;;;;;;5072765;28;20072;-72
2023/10/16 11:00:43;;;;;;;10.57;1.10;;;;;;;;;;5073045;28;20139;-71
2023/10/16 11:03:10;;;;;;;11.57;0.65;;;;;;;;;;5072428;28;20369;-71
2023/10/16 11:05:43;;;;;;;9.35;0.98;;;;;;;;;;5073221;28;20040;-71
2023/10/16 11:10:41;;;;;;;12.23;0.68;;;;;;;;;;5071879;28;20048;-71
2023/10/16 11:13:11;;;;;;;11.85;0.70;;;;;;;;;;5073015;28;20037;-72
2023/10/16 11:15:37;;;;;;;11.82;0.98;;;;;;;;;;5072689;28;20132;-74
2023/10/16 11:18:11;;;;;;;8.73;0.95;;;;;;;;;;5071527;28;20087;-73
2023/10/16 11:20:37;;;;;;;12.15;1.33;;;;;;;;;;5055198;28;20047;-72
2023/10/16 11:23:16;;;;;;;9.20;0.87;;;;;;;;;;5072940;28;20047;-72
2023/10/16 11:25:44;;;;;;;6.72;0.95;;;;;;;;;;5072467;28;20048;-74
2023/10/16 11:28:13;;;;;;;10.38;0.90;;;;;;;;;;5072094;28;20044;-71
2023/10/16 11:30:39;;;;;;;12.13;0.80;;;;;;;;;;5071778;28;20049;-71
2023/10/16 11:33:09;;;;;;;14.98;2.35;;;;;;;;;;5072894;28;20084;-72
2023/10/16 11:35:35;;;;;;;7.85;1.00;;;;;;;;;;5072122;28;20049;-72
2023/10/16 11:38:13;;;;;;;9.93;0.60;;;;;;;;;;5077332;28;20041;-70
2023/10/16 11:40:39;;;;;;;10.40;0.70;;;;;;;;;;5076375;28;20435;-71
2023/10/16 11:43:12;;;;;;;13.50;0.88;;;;;;;;;;5076569;28;20048;-70
2023/10/16 11:45:42;;;;;;;12.20;1.08;;;;;;;;;;5076494;28;20124;-71
2023/10/16 11:50:58;;;;;;;10.05;0.95;;;;;;;;;;5076643;28;20102;-72
2023/10/16 11:53:25;;;;;;;5.38;0.75;;;;;;;;;;5077039;28;20426;-71
2023/10/16 11:55:51;;;;;;;11.18;0.70;;;;;;;;;;5077474;28;20143;-73
2023/10/16 11:58:18;;;;;;;10.27;0.68;;;;;;;;;;5058314;28;20107;-73
2023/10/16 12:01:09;;;;;;;10.70;0.75;;;;;;;;;;5076864;28;20399;-72
2023/10/16 12:03:37;;;;;;;11.68;0.93;;;;;;;;;;5076333;28;20059;-71
2023/10/16 12:06:08;;;;;;;9.23;0.80;;;;;;;;;;5076180;28;20040;-70
2023/10/16 12:08:34;;;;;;;3.60;0.60;;;;;;;;;;5075862;28;20040;-71
2023/10/16 12:11:01;;;;;;;9.18;0.77;;;;;;;;;;5076183;28;20040;-71
2023/10/16 12:13:28;;;;;;;6.55;0.50;;;;;;;;;;5075001;28;20469;-71
2023/10/16 12:15:54;;;;;;;12.05;0.90;;;;;;;;;;5074801;28;20044;-73
2023/10/16 12:18:21;;;;;;;7.80;0.80;;;;;;;;;;5075930;28;20037;-74
2023/10/16 12:20:47;;;;;;;;;;;;;;;;;;5075414;28;20055;-71
2023/10/16 12:23:13;;;;;;;6.57;0.60;;;;;;;;;;5075963;28;19916;-70
2023/10/16 12:25:39;;;;;;;12.88;0.60;;;;;;;;;;5074466;28;20044;-71
2023/10/16 12:28:08;;;;;;;6.47;0.50;;;;;;;;;;5059056;28;20376;-70
2023/10/16 12:30:36;;;;;;;10.10;0.88;;;;;;;;;;5074377;28;20095;-72
2023/10/16 12:33:06;;;;;;;10.85;1.30;;;;;;;;;;5057984;28;20105;-71
2023/10/16 12:35:34;;;;;;;6.13;0.60;;;;;;;;;;5075616;28;20048;-72
2023/10/16 12:38:04;;;;;;;11.40;0.70;;;;;;;;;;5074375;28;20055;-73
2023/10/16 12:40:34;;;;;;;12.13;0.68;;;;;;;;;;5074349;28;20051;-70
2023/10/16 12:43:01;;;;;;;6.38;0.50;;;;;;;;;;5074385;28;20123;-74
2023/10/16 12:45:27;;;;;;;8.40;1.05;;;;;;;;;;5075476;28;20052;-72
2023/10/16 12:47:57;;;;;;;10.50;0.63;;;;;;;;;;5074363;28;20131;-72
2023/10/16 12:50:23;;;;;;;5.88;0.50;;;;;;;;;;5075256;28;20047;-71
2023/10/16 12:52:54;;;;;;;9.70;0.70;;;;;;;;;;5074443;28;20043;-71
2023/10/16 12:55:22;;;;;;;6.53;0.50;;;;;;;;;;5075365;28;20049;-72
2023/10/16 12:57:51;;;;;;;7.93;1.02;;;;;;;;;;5074913;28;20041;-71
2023/10/16 13:00:18;;;;;;;9.40;0.60;;;;;;;;;;5075494;28;20061;-74
2023/10/16 13:02:48;;;;;;;6.20;0.68;;;;;;;;;;5074331;28;20485;-71
2023/10/16 13:05:18;;;;;;;7.60;0.77;;;;;;;;;;5074591;28;20063;-70
2023/10/16 13:07:45;;;;;;;9.27;0.60;;;;;;;;;;5075297;28;20127;-71
2023/10/16 13:10:14;;;;;;;;;;;;;;;;;;5074555;28;20048;-70
2023/10/16 13:12:44;;;;;;;7.50;0.90;;;;;;;;;;5073704;28;20376;-72
2023/10/16 13:15:14;;;;;;;4.70;0.60;;;;;;;;;;5057434;28;20052;-72
2023/10/16 13:17:40;;;;;;;5.63;0.60;;;;;;;;;;5075566;28;20127;-71
2023/10/16 13:20:19;;;;;;;8.90;0.60;;;;;;;;;;5074957;28;20084;-72
2023/10/16 13:22:49;;;;;;;4.43;0.57;;;;;;;;;;5073956;28;20052;-71
2023/10/16 13:25:16;;;;;;;6.55;0.80;;;;;;;;;;5073466;28;20054;-71
2023/10/16 13:27:44;;;;;;;9.63;0.57;;;;;;;;;;5074508;28;20048;-70
2023/10/16 13:30:11;;;;;;;8.95;0.50;;;;;;;;;;5074228;28;20127;-74
2023/10/16 13:32:41;;;;;;;6.63;0.70;;;;;;;;;;5073255;28;20045;-75
2023/10/16 13:35:12;;;;;;;7.35;0.70;;;;;;;;;;5056877;28;20052;-72
2023/10/16 13:37:47;;;;;;;9.30;1.00;;;;;;;;;;5075018;28;20068;-73
2023/10/16 13:40:20;;;;;;;7.35;0.90;;;;;;;;;;5073561;28;20130;-72
2023/10/16 13:42:50;;;;;;;11.30;0.68;;;;;;;;;;5073481;28;20044;-71
2023/10/16 13:45:16;;;;;;;5.63;1.02;;;;;;;;;;5073587;28;20068;-70
2023/10/16 13:47:43;;;;;;;4.30;0.70;;;;;;;;;;5074775;28;20127;-71
2023/10/16 13:50:10;;;;;;;6.85;0.50;;;;;;;;;;5074322;28;20091;-71
2023/10/16 13:52:36;;;;;;;10.27;0.80;;;;;;;;;;5073865;28;20051;-72
2023/10/16 13:55:12;;;;;;;12.88;1.48;;;;;;;;;;5073901;28;20554;-70
2023/10/16 13:57:42;;;;;;;7.82;0.60;;;;;;;;;;5074583;28;20036;-70
2023/10/16 14:00:09;;;;;;;8.18;0.55;;;;;;;;;;5073572;28;20056;-71
2023/10/16 14:02:36;;;;;;;10.30;0.60;;;;;;;;;;5073705;28;20496;-70
2023/10/16 14:05:06;;;;;;;8.70;1.23;;;;;;;;;;5074040;28;20127;-71
2023/10/16 14:07:33;;;;;;;7.15;0.80;;;;;;;;;;5073137;28;20045;-70
2023/10/16 14:10:02;;;;;;;5.80;0.60;;;;;;;;;;5073882;28;20048;-70
2023/10/16 14:12:28;;;;;;;5.15;0.63;;;;;;;;;;5073102;28;20061;-71
2023/10/16 14:14:54;;;;;;;8.50;0.57;;;;;;;;;;5039783;28;20045;-71
2023/10/16 14:17:21;;;;;;;8.52;0.82;;;;;;;;;;5072414;28;20105;-70
2023/10/16 14:19:49;;;;;;;5.05;0.60;;;;;;;;;;5073628;28;20055;-71
2023/10/16 14:22:16;;;;;;;9.18;0.75;;;;;;;;;;5056057;28;20495;-71
2023/10/16 14:24:42;;;;;;;8.30;1.17;;;;;;;;;;5073426;28;20054;-69
2023/10/16 14:27:09;;;;;;;6.80;0.73;;;;;;;;;;5073542;28;20044;-71
2023/10/16 14:29:39;;;;;;;13.35;0.80;;;;;;;;;;5073697;28;20469;-72
2023/10/16 14:32:05;;;;;;;12.63;1.13;;;;;;;;;;5073491;28;20052;-71
2023/10/16 14:34:31;;;;;;;9.00;0.80;;;;;;;;;;5073128;28;20076;-72
2023/10/16 14:36:58;;;;;;;7.13;0.70;;;;;;;;;;5072450;28;20384;-71
2023/10/16 14:39:33;;;;;;;6.28;0.65;;;;;;;;;;5073036;28;20060;-74
2023/10/16 14:42:04;;;;;;;5.22;0.40;;;;;;;;;;5057146;28;20049;-71
2023/10/16 14:44:30;;;;;;;10.13;0.80;;;;;;;;;;5072625;28;20056;-72
2023/10/16 14:46:57;;;;;;;12.05;0.80;;;;;;;;;;5055268;28;20040;-71
2023/10/16 14:49:25;;;;;;;5.63;0.80;;;;;;;;;;5073319;28;20084;-70
2023/10/16 14:51:51;;;;;;;5.25;0.80;;;;;;;;;;5072894;28;20362;-71
2023/10/16 14:54:21;;;;;;;7.60;0.90;;;;;;;;;;5055387;28;20156;-71
2023/10/16 14:56:49;;;;;;;8.38;1.05;;;;;;;;;;5072982;28;20056;-71
2023/10/16 14:59:23;;;;;;;6.22;0.80;;;;;;;;;;5055168;28;20539;-72
2023/10/16 15:01:50;;;;;;;8.25;0.60;;;;;;;;;;5072122;28;20056;-71
2023/10/16 15:04:17;;;;;;;9.57;0.98;;;;;;;;;;5055572;28;20044;-71
2023/10/16 15:06:44;;;;;;;10.25;0.65;;;;;;;;;;5072376;28;20048;-72
2023/10/16 15:09:15;;;;;;;7.07;0.70;;;;;;;;;;5055979;28;20071;-73
2023/10/16 15:11:43;;;;;;;7.65;0.73;;;;;;;;;;5071519;28;20131;-71
2023/10/16 15:14:12;;;;;;;9.98;0.80;;;;;;;;;;5072349;28;20049;-70
2023/10/16 15:16:38;;;;;;;10.70;0.73;;;;;;;;;;5071854;28;20056;-70
2023/10/16 15:19:07;;;;;;;7.55;1.20;;;;;;;;;;5073864;28;20045;-71
2023/10/16 15:21:37;;;;;;;7.38;0.60;;;;;;;;;;5055703;28;20090;-71
2023/10/16 15:24:04;;;;;;;8.98;0.73;;;;;;;;;;5072724;28;20044;-70
2023/10/16 15:26:33;;;;;;;11.48;0.93;;;;;;;;;;5072998;28;20052;-71
2023/10/16 15:29:00;;;;;;;11.98;1.00;;;;;;;;;;5071993;28;20133;-71
2023/10/16 15:31:26;;;;;;;;;;;;;;;;;;5073243;28;20133;-70
2023/10/16 15:33:53;;;;;;;12.30;1.40;;;;;;;;;;5071789;28;19928;-71
2023/10/16 15:36:19;;;;;;;10.05;0.90;;;;;;;;;;5073154;28;20286;-71
2023/10/16 15:38:45;;;;;;;8.20;1.13;;;;;;;;;;5072713;28;20088;-70
2023/10/16 15:41:15;;;;;;;6.82;0.77;;;;;;;;;;5071786;28;20330;-71
2023/10/16 15:43:42;;;;;;;7.78;1.23;;;;;;;;;;5072775;28;20045;-69
2023/10/16 15:46:38;;;;;;;11.75;1.63;;;;;;;;;;5072735;28;20550;-69
2023/10/16 15:49:05;;;;;;;11.20;2.05;;;;;;;;;;5067859;28;20060;-70
2023/10/16 15:51:32;;;;;;;;;;;;;;;;;;5073422;28;20070;-70
2023/10/16 15:53:58;;;;;;;;;;;;;;;;;;5073065;28;19920;-69
2023/10/16 15:56:24;;;;;;;10.35;2.00;;;;;;;;;;5071911;28;19920;-70
2023/10/16 15:58:50;;;;;;;14.07;2.23;;;;;;;;;;5071363;28;20078;-70
2023/10/16 16:01:17;;;;;;;9.63;2.70;;;;;;;;;;5072380;28;20057;-70
2023/10/16 16:03:43;;;;;;;10.00;1.80;;;;;;;;;;5071503;28;20131;-71
2023/10/16 16:06:10;;;;;;;12.00;2.00;;;;;;;;;;5072554;28;20198;-71
2023/10/16 16:08:39;;;;;;;11.85;2.38;;;;;;;;;;5072475;28;20067;-71
2023/10/16 16:11:13;;;;;;;11.52;2.15;;;;;;;;;;5072284;28;20048;-70
2023/10/16 16:13:46;;;;;;;9.88;1.65;;;;;;;;;;5071365;28;20041;-71
2023/10/16 16:16:13;;;;;;;12.05;1.73;;;;;;;;;;5071143;28;20049;-72
2023/10/16 16:18:39;;;;;;;12.20;1.50;;;;;;;;;;5071352;28;20556;-71
2023/10/16 16:21:06;;;;;;;9.15;1.70;;;;;;;;;;5073007;28;20393;-71
2023/10/16 16:23:32;;;;;;;11.82;2.08;;;;;;;;;;5073405;28;20395;-71
2023/10/16 16:25:59;;;;;;;16.27;1.77;;;;;;;;;;5075773;28;20048;-72
2023/10/16 16:28:25;;;;;;;7.40;1.52;;;;;;;;;;5074539;28;20040;-70
2023/10/16 16:30:53;;;;;;;11.32;1.85;;;;;;;;;;5074532;28;20055;-70
2023/10/16 16:33:19;;;;;;;12.68;1.80;;;;;;;;;;5075242;28;20052;-71
2023/10/16 16:35:47;;;;;;;13.65;2.20;;;;;;;;;;5075567;28;20055;-71
2023/10/16 16:38:14;;;;;;;11.77;2.40;;;;;;;;;;5076470;28;20114;-70
2023/10/16 16:40:44;;;;;;;7.97;2.17;;;;;;;;;;5075122;28;20439;-70
2023/10/16 16:43:10;;;;;;;14.02;2.28;;;;;;;;;;5075200;28;20406;-70
2023/10/16 16:45:36;;;;;;;16.30;2.28;;;;;;;;;;5108201;28;20045;-71
2023/10/16 16:48:02;;;;;;;10.50;2.10;;;;;;;;;;5074081;28;20123;-71
2023/10/16 16:50:28;;;;;;;15.27;2.60;;;;;;;;;;5075504;28;20040;-70
2023/10/16 16:52:55;;;;;;;14.23;2.67;;;;;;;;;;5075217;28;20489;-71